NCAR-RAP Real-Time Weather Data

Output produced by METARs form (06 May 2021  15:22 UTC)
found at http://weather.rap.ucar.edu/surface/
 
KPHL 061454Z 01012G20KT 10SM SCT044 14/03 A3002 RMK AO2 SLP164 T01440033 53004
KPHL 061354Z 33014G21KT 10SM SCT042 14/03 A3001 RMK AO2 SLP161 T01390033
KPHL 061254Z 35014G24KT 10SM FEW036 FEW045 13/03 A3001 RMK AO2 SLP161 T01280033
KPHL 061154Z 32009KT 10SM FEW045 12/03 A3001 RMK AO2 SLP160 70040 T01170028 10128 20100 51020
KPHL 061054Z 29009G20KT 10SM FEW045 11/02 A2999 RMK AO2 SLP156 T01060022
KPHL 060954Z 29011KT 10SM FEW045 11/02 A2997 RMK AO2 SLP148 T01060017
KPHL 060854Z 29008KT 10SM CLR 11/02 A2995 RMK AO2 SLP140 T01110017 53009
KPHL 060754Z 29007KT 10SM FEW200 12/02 A2994 RMK AO2 SLP136 T01170017
KPHL 060654Z 31009KT 10SM CLR 12/02 A2992 RMK AO2 SLP132 T01220017
KPHL 060554Z 31012KT 10SM FEW060 FEW250 13/02 A2992 RMK AO2 PK WND 32026/0512 SLP132 T01280022 10178 20128 51011
KPHL 060454Z 33014G20KT 10SM BKN055 14/07 A2991 RMK AO2 SLP129 T01390067 402440139
KPHL 060354Z 36013G17KT 10SM BKN060 14/08 A2990 RMK AO2 SLP125 T01440078
KPHL 060254Z 33010KT 10SM FEW060 BKN250 15/08 A2989 RMK AO2 SLP121 T01500078 51027
KPHL 060154Z 33009KT 10SM FEW050 FEW250 16/09 A2987 RMK AO2 SLP113 T01560089
KPHL 060054Z 33011KT 10SM SCT050 16/09 A2984 RMK AO2 PK WND 33028/0013 SLP103 T01610094
KPHL 052354Z 32014G21KT 10SM SCT033 BKN044 BKN065 18/10 A2981 RMK AO2 PK WND 35029/2300 SLP094 60000 T01780100 10244 20172 53050